createdAt,value
2023-03-27T00:01:40.117Z,5.70
2023-03-27T00:07:42.580Z,4.47
2023-03-27T00:13:49.033Z,7.33
2023-03-27T00:19:51.555Z,4.00
2023-03-27T00:26:00.113Z,6.47
2023-03-27T00:32:02.526Z,4.83
2023-03-27T00:38:11.606Z,10.50
2023-03-27T00:44:31.544Z,9.00
2023-03-27T00:50:42.067Z,7.70
2023-03-27T00:56:51.950Z,12.53
2023-03-27T01:02:58.402Z,8.37
2023-03-27T01:09:07.506Z,9.30
2023-03-27T01:15:24.043Z,11.13
2023-03-27T01:21:52.592Z,7.73
2023-03-27T01:28:27.225Z,6.07
2023-03-27T01:35:01.320Z,6.70
2023-03-27T01:41:12.359Z,6.40
2023-03-27T01:47:17.859Z,5.13
2023-03-27T01:53:30.352Z,6.73
2023-03-27T01:59:36.844Z,4.37
2023-03-27T02:05:53.794Z,5.23
2023-03-27T02:12:02.940Z,8.57
2023-03-27T02:18:13.479Z,6.03
2023-03-27T02:24:20.957Z,7.27
2023-03-27T02:30:43.520Z,5.67
2023-03-27T02:37:03.185Z,21.33
2023-03-27T02:43:34.641Z,5.17
2023-03-27T02:49:46.013Z,5.30
2023-03-27T02:55:55.624Z,3.60
2023-03-27T03:02:00.162Z,14.33
2023-03-27T03:08:04.908Z,10.30
2023-03-27T03:14:07.017Z,5.47
2023-03-27T03:20:10.510Z,9.77
2023-03-27T03:26:14.054Z,9.53
2023-03-27T03:32:17.802Z,4.93
2023-03-27T03:38:26.016Z,7.27
2023-03-27T03:44:31.488Z,5.07
2023-03-27T03:50:33.980Z,6.90
2023-03-27T03:56:39.549Z,16.27
2023-03-27T04:02:44.068Z,14.20
2023-03-27T04:08:47.447Z,10.83
2023-03-27T04:14:52.201Z,29.67
2023-03-27T04:20:56.571Z,14.13
2023-03-27T04:27:02.881Z,10.07
2023-03-27T04:33:06.297Z,11.90
2023-03-27T04:39:10.843Z,7.90
2023-03-27T04:45:33.457Z,8.27
2023-03-27T04:51:35.858Z,8.43
2023-03-27T04:57:39.393Z,9.37
2023-03-27T05:03:46.374Z,13.47
2023-03-27T05:09:51.537Z,10.40
2023-03-27T05:15:53.828Z,7.83
2023-03-27T05:21:58.362Z,12.03
2023-03-27T05:28:03.844Z,10.27
2023-03-27T05:34:08.346Z,12.40
2023-03-27T05:40:10.785Z,16.93
2023-03-27T05:46:14.291Z,12.03
2023-03-27T05:52:28.857Z,11.37
2023-03-27T05:58:31.259Z,13.47
2023-03-27T06:04:34.769Z,10.27
2023-03-27T06:10:37.180Z,11.33
2023-03-27T06:16:43.720Z,13.57
2023-03-27T06:22:51.974Z,23.07
2023-03-27T06:28:54.662Z,15.63
2023-03-27T06:34:59.584Z,17.67
2023-03-27T06:41:02.812Z,15.63
2023-03-27T06:47:05.225Z,14.17
2023-03-27T06:53:25.784Z,11.40
2023-03-27T06:59:34.387Z,13.20
2023-03-27T07:05:41.875Z,17.57
2023-03-27T07:11:44.739Z,19.87
2023-03-27T07:18:00.361Z,21.70
2023-03-27T07:24:02.596Z,11.17
2023-03-27T07:30:09.656Z,21.83
2023-03-27T07:36:18.105Z,13.20
2023-03-27T07:42:25.617Z,12.97
2023-03-27T07:48:31.186Z,20.27
2023-03-27T07:54:33.635Z,22.73
2023-03-27T08:00:40.361Z,16.97
2023-03-27T08:06:53.572Z,21.27
2023-03-27T08:12:56.101Z,13.87
2023-03-27T08:19:03.755Z,16.67
2023-03-27T08:25:08.962Z,20.80
2023-03-27T08:37:33.013Z,18.10
2023-03-27T08:43:46.526Z,16.30
2023-03-27T08:50:02.035Z,16.43
2023-03-27T08:56:15.111Z,16.10
2023-03-27T09:02:33.020Z,8.53
2023-03-27T09:08:56.690Z,10.23
2023-03-27T09:15:28.865Z,10.30
2023-03-27T09:21:55.158Z,9.60
2023-03-27T09:27:58.348Z,14.47
2023-03-27T09:34:09.821Z,16.27
2023-03-27T09:40:35.344Z,11.23
2023-03-27T09:47:06.332Z,11.77
2023-03-27T09:53:21.464Z,11.80
2023-03-27T10:00:00.175Z,12.73
2023-03-27T10:06:14.110Z,10.47
2023-03-27T10:12:36.174Z,8.40
2023-03-27T10:19:26.362Z,8.40
2023-03-27T10:25:52.359Z,8.87
2023-03-27T10:32:17.347Z,9.70
2023-03-27T10:38:29.448Z,18.20
2023-03-27T10:44:45.922Z,13.90
2023-03-27T10:51:10.815Z,5.83
2023-03-27T10:57:22.205Z,9.50
2023-03-27T11:03:45.740Z,10.57
2023-03-27T11:10:13.170Z,12.67
2023-03-27T11:16:24.865Z,11.40
2023-03-27T11:22:55.996Z,5.00
2023-03-27T11:29:11.852Z,9.60
2023-03-27T11:35:28.425Z,8.70
2023-03-27T11:41:33.916Z,4.30
2023-03-27T11:47:49.450Z,3.07
2023-03-27T11:53:59.961Z,4.43
2023-03-27T12:00:19.460Z,4.03
2023-03-27T12:07:01.627Z,4.13
2023-03-27T12:13:41.308Z,3.83
2023-03-27T12:19:53.723Z,4.10
2023-03-27T12:26:19.817Z,3.67
2023-03-27T12:33:01.539Z,3.63
2023-03-27T12:39:31.665Z,3.53
2023-03-27T12:45:38.698Z,5.07
2023-03-27T12:52:15.235Z,4.53
2023-03-27T12:58:33.790Z,3.73
2023-03-27T13:05:26.372Z,4.70
2023-03-27T13:12:07.362Z,5.57
2023-03-27T13:18:43.552Z,4.67
2023-03-27T13:25:17.450Z,6.97
2023-03-27T13:31:48.945Z,2.87
2023-03-27T13:37:52.813Z,5.90
2023-03-27T13:44:01.684Z,4.50
2023-03-27T13:50:35.314Z,9.87
2023-03-27T13:56:58.932Z,8.30
2023-03-27T14:03:38.609Z,6.00
2023-03-27T14:10:14.956Z,5.87
2023-03-27T14:16:29.710Z,10.27
2023-03-27T14:22:41.484Z,7.00
2023-03-27T14:28:55.730Z,6.37
2023-03-27T14:35:05.240Z,7.40
2023-03-27T14:47:48.453Z,16.77
2023-03-27T14:54:13.896Z,7.97
2023-03-27T15:00:20.412Z,10.47
2023-03-27T15:06:29.875Z,8.17
2023-03-27T15:12:33.424Z,5.00
2023-03-27T15:18:56.956Z,12.83
2023-03-27T15:25:04.387Z,8.60
2023-03-27T15:31:10.957Z,6.20
2023-03-27T15:37:29.026Z,8.77
2023-03-27T15:43:33.142Z,6.67
2023-03-27T15:49:47.578Z,5.23
2023-03-27T15:55:57.220Z,5.17
2023-03-27T16:02:13.459Z,14.03
2023-03-27T16:08:34.006Z,13.07
2023-03-27T16:14:49.499Z,26.10
2023-03-27T16:20:54.984Z,76.53
2023-03-27T16:26:57.401Z,25.70
2023-03-27T16:33:01.004Z,20.63
2023-03-27T16:39:15.468Z,12.40
2023-03-27T16:45:17.950Z,13.33
2023-03-27T16:51:25.452Z,8.87
2023-03-27T16:57:27.918Z,16.47
2023-03-27T17:03:40.382Z,16.47
2023-03-27T17:09:42.908Z,33.57
2023-03-27T17:15:46.391Z,39.43
2023-03-27T17:21:48.797Z,27.77
2023-03-27T17:27:54.281Z,22.97
2023-03-27T17:33:57.775Z,26.93
2023-03-27T17:40:01.260Z,26.43
2023-03-27T17:46:05.769Z,27.30
2023-03-27T17:52:19.249Z,29.57
2023-03-27T17:58:22.480Z,39.13
2023-03-27T18:04:28.247Z,29.90
2023-03-27T18:10:34.759Z,25.00
2023-03-27T18:24:02.733Z,23.97
2023-03-27T18:45:16.093Z,30.53
2023-03-27T18:57:44.664Z,6.93
2023-03-27T19:18:19.612Z,20.87
2023-03-27T19:31:46.040Z,12.27
2023-03-27T19:38:04.370Z,19.57
2023-03-27T19:58:10.450Z,10.37
2023-03-27T20:19:28.415Z,7.50
2023-03-27T20:26:14.644Z,6.87
2023-03-27T20:32:20.582Z,17.27
2023-03-27T20:45:31.462Z,14.63
2023-03-27T20:52:26.495Z,14.83
2023-03-27T21:19:24.066Z,13.33
2023-03-27T21:25:28.596Z,15.57
2023-03-27T21:32:01.487Z,19.13
2023-03-27T21:38:30.621Z,16.53
2023-03-27T21:45:05.781Z,15.57
2023-03-27T21:51:11.653Z,16.43
2023-03-27T21:57:44.086Z,13.93
2023-03-27T22:04:01.006Z,12.67
2023-03-27T22:10:44.011Z,13.07
2023-03-27T22:16:46.930Z,2.27
2023-03-27T22:22:49.429Z,1.20
2023-03-27T22:29:02.122Z,0.93
2023-03-27T22:35:04.659Z,0.67
2023-03-27T22:41:17.982Z,0.57
2023-03-27T22:47:28.485Z,2.70
2023-03-27T22:53:32.934Z,2.97
2023-03-27T22:59:37.348Z,1.07
2023-03-27T23:05:43.926Z,0.57
2023-03-27T23:11:51.602Z,0.97
2023-03-27T23:18:03.598Z,0.70
2023-03-27T23:24:07.443Z,1.00
2023-03-27T23:30:18.899Z,1.67
2023-03-27T23:36:25.507Z,1.30
2023-03-27T23:42:28.888Z,0.60
2023-03-27T23:48:32.337Z,1.17
2023-03-27T23:54:35.804Z,1.30
